createdAt,value
2019-03-08T00:01:32.899Z,65.71
2019-03-08T00:04:04.583Z,65.73
2019-03-08T00:06:36.272Z,65.62
2019-03-08T00:09:09.062Z,65.64
2019-03-08T00:11:41.016Z,65.66
2019-03-08T00:14:13.693Z,65.57
2019-03-08T00:16:45.168Z,65.67
2019-03-08T00:19:16.597Z,65.76
2019-03-08T00:21:50.180Z,65.53
2019-03-08T00:24:21.961Z,65.69
2019-03-08T00:26:53.412Z,65.84
2019-03-08T00:29:25.477Z,65.85
2019-03-08T00:31:56.930Z,65.98
2019-03-08T00:34:27.459Z,65.99
2019-03-08T00:36:58.905Z,66.13
2019-03-08T00:39:30.353Z,66.11
2019-03-08T00:42:01.508Z,66.22
2019-03-08T00:44:31.752Z,66.20
2019-03-08T00:47:03.198Z,66.35
2019-03-08T00:49:33.708Z,66.21
2019-03-08T00:52:05.167Z,66.33
2019-03-08T00:54:36.615Z,66.42
2019-03-08T00:57:06.862Z,66.58
2019-03-08T00:59:37.362Z,66.60
2019-03-08T01:02:07.623Z,66.62
2019-03-08T01:04:38.114Z,66.78
2019-03-08T01:07:08.358Z,66.72
2019-03-08T01:09:39.786Z,66.73
2019-03-08T01:12:10.026Z,66.64
2019-03-08T01:14:41.464Z,66.81
2019-03-08T01:17:11.995Z,66.88
2019-03-08T01:19:43.446Z,66.92
2019-03-08T01:22:13.964Z,67.03
2019-03-08T01:24:44.203Z,67.00
2019-03-08T01:27:15.647Z,66.92
2019-03-08T01:29:45.889Z,66.89
2019-03-08T01:32:16.398Z,66.57
2019-03-08T01:34:48.774Z,66.43
2019-03-08T01:37:20.475Z,66.46
2019-03-08T01:39:52.298Z,66.23
2019-03-08T01:42:22.533Z,65.86
2019-03-08T01:44:53.976Z,65.58
2019-03-08T01:47:24.497Z,65.66
2019-03-08T01:49:54.741Z,65.28
2019-03-08T01:52:27.095Z,65.46
2019-03-08T01:54:57.366Z,65.56
2019-03-08T01:57:28.765Z,65.45
2019-03-08T01:59:59.019Z,65.51
2019-03-08T02:02:29.512Z,65.56
2019-03-08T02:05:00.976Z,65.24
2019-03-08T02:07:33.188Z,65.12
2019-03-08T02:10:08.296Z,65.05
2019-03-08T02:12:38.692Z,64.61
2019-03-08T02:15:13.015Z,64.16
2019-03-08T02:17:43.447Z,63.94
2019-03-08T02:20:18.970Z,63.79
2019-03-08T02:22:49.409Z,63.59
2019-03-08T02:25:19.662Z,63.09
2019-03-08T02:27:51.100Z,62.96
2019-03-08T02:30:22.599Z,62.84
2019-03-08T02:32:53.376Z,62.94
2019-03-08T02:35:23.629Z,63.02
2019-03-08T02:37:55.981Z,62.84
2019-03-08T02:40:32.004Z,63.10
2019-03-08T02:43:06.031Z,62.82
2019-03-08T02:45:36.488Z,62.61
2019-03-08T02:48:07.927Z,62.41
2019-03-08T02:50:38.167Z,62.52
2019-03-08T02:53:09.596Z,62.63
2019-03-08T02:55:41.854Z,62.78
2019-03-08T02:58:12.194Z,62.57
2019-03-08T03:00:45.641Z,62.88
2019-03-08T03:03:16.455Z,62.90
2019-03-08T03:05:47.771Z,62.96
2019-03-08T03:08:18.092Z,62.94
2019-03-08T03:10:48.527Z,63.00
2019-03-08T03:13:18.762Z,63.07
2019-03-08T03:15:50.202Z,63.17
2019-03-08T03:18:21.349Z,63.16
2019-03-08T03:20:52.800Z,63.37
2019-03-08T03:23:23.044Z,62.92
2019-03-08T03:25:57.473Z,63.29
2019-03-08T03:28:28.080Z,63.33
2019-03-08T03:30:59.836Z,63.46
2019-03-08T03:33:31.589Z,63.56
2019-03-08T03:36:01.824Z,63.67
2019-03-08T03:38:33.273Z,63.75
2019-03-08T03:41:05.648Z,64.04
2019-03-08T03:43:36.170Z,64.15
2019-03-08T03:46:07.624Z,64.07
2019-03-08T03:48:39.074Z,64.25
2019-03-08T03:51:10.533Z,64.23
2019-03-08T03:53:41.052Z,64.27
2019-03-08T03:56:12.505Z,64.29
2019-03-08T03:58:42.773Z,64.12
2019-03-08T04:01:21.764Z,64.32
2019-03-08T04:03:52.071Z,64.55
2019-03-08T04:06:22.609Z,64.43
2019-03-08T04:08:54.132Z,64.29
2019-03-08T04:11:25.514Z,64.01
2019-03-08T04:13:55.757Z,64.21
2019-03-08T04:16:27.181Z,63.76
2019-03-08T04:18:57.716Z,63.84
2019-03-08T04:21:27.966Z,64.04
2019-03-08T04:23:58.476Z,64.00
2019-03-08T04:26:29.912Z,64.26
2019-03-08T04:29:00.157Z,64.22
2019-03-08T04:31:31.902Z,64.12
2019-03-08T04:34:04.030Z,64.07
2019-03-08T04:36:35.734Z,64.21
2019-03-08T04:39:07.182Z,64.27
2019-03-08T04:41:38.679Z,64.26
2019-03-08T04:44:10.383Z,64.23
2019-03-08T04:46:40.634Z,64.37
2019-03-08T04:49:11.151Z,64.19
2019-03-08T04:51:42.586Z,64.25
2019-03-08T04:54:12.824Z,64.18
2019-03-08T04:56:43.341Z,64.30
2019-03-08T04:59:13.592Z,64.38
2019-03-08T05:01:45.016Z,64.51
2019-03-08T05:04:15.257Z,64.49
2019-03-08T05:06:46.688Z,64.71
2019-03-08T05:09:18.449Z,64.71
2019-03-08T05:11:48.756Z,64.60
2019-03-08T05:14:19.216Z,64.62
2019-03-08T05:16:50.652Z,64.52
2019-03-08T05:19:22.146Z,64.43
2019-03-08T05:21:52.931Z,64.52
2019-03-08T05:24:24.401Z,64.30
2019-03-08T05:26:58.228Z,64.41
2019-03-08T05:29:32.534Z,64.25
2019-03-08T05:32:03.961Z,64.25
2019-03-08T05:34:35.431Z,64.06
2019-03-08T05:37:05.660Z,63.85
2019-03-08T05:39:36.182Z,63.64
2019-03-08T05:42:06.699Z,63.61
2019-03-08T05:44:37.233Z,63.61
2019-03-08T05:47:07.491Z,63.56
2019-03-08T05:49:37.997Z,63.38
2019-03-08T05:52:08.523Z,62.88
2019-03-08T05:54:39.060Z,63.01
2019-03-08T05:57:11.444Z,62.74
2019-03-08T05:59:45.401Z,62.34
2019-03-08T06:02:17.081Z,62.17
2019-03-08T06:04:47.614Z,61.97
2019-03-08T06:07:23.583Z,61.74
2019-03-08T06:09:55.437Z,61.33
2019-03-08T06:12:27.827Z,61.03
2019-03-08T06:14:59.276Z,60.90
2019-03-08T06:17:29.775Z,58.16
2019-03-08T06:20:00.947Z,49.20
2019-03-08T06:22:33.085Z,44.51
2019-03-08T06:25:04.606Z,40.96
2019-03-08T06:27:34.980Z,40.64
2019-03-08T06:30:08.371Z,36.82
2019-03-08T06:32:40.949Z,35.91
2019-03-08T06:35:11.503Z,35.44
2019-03-08T06:37:42.487Z,34.65
2019-03-08T06:40:15.617Z,35.55
2019-03-08T06:42:47.062Z,35.50
2019-03-08T06:45:19.004Z,34.67
2019-03-08T06:47:51.806Z,34.35
2019-03-08T06:50:22.078Z,32.92
2019-03-08T06:52:52.604Z,33.13
2019-03-08T06:55:24.026Z,32.35
2019-03-08T06:58:01.364Z,30.53
2019-03-08T07:00:36.586Z,31.03
2019-03-08T07:03:09.875Z,30.65
2019-03-08T07:05:41.910Z,31.21
2019-03-08T07:08:13.650Z,30.69
2019-03-08T07:10:44.423Z,30.41
2019-03-08T07:13:15.854Z,31.46
2019-03-08T07:15:47.322Z,30.33
2019-03-08T07:18:17.838Z,30.95
2019-03-08T07:20:50.941Z,30.16
2019-03-08T07:23:27.954Z,30.20
2019-03-08T07:26:07.152Z,29.61
2019-03-08T07:28:54.197Z,30.83
2019-03-08T07:31:41.683Z,31.49
2019-03-08T07:34:26.998Z,34.98
2019-03-08T07:37:15.626Z,32.19
2019-03-08T07:39:47.587Z,36.93
2019-03-08T07:42:25.179Z,40.94
2019-03-08T07:44:57.225Z,41.65
2019-03-08T07:47:46.040Z,41.12
2019-03-08T07:50:22.347Z,37.29
2019-03-08T07:52:56.489Z,36.48
2019-03-08T07:55:46.440Z,40.16
2019-03-08T07:58:37.646Z,42.54
2019-03-08T08:01:09.538Z,35.95
2019-03-08T08:03:44.263Z,36.56
2019-03-08T08:06:18.288Z,33.96
2019-03-08T08:09:06.504Z,36.21
2019-03-08T08:11:58.316Z,33.58
2019-03-08T08:14:39.642Z,35.97
2019-03-08T08:17:28.700Z,32.92
2019-03-08T08:20:03.826Z,33.35
2019-03-08T08:22:46.570Z,36.67
2019-03-08T08:25:18.613Z,36.70
2019-03-08T08:28:07.679Z,38.35
2019-03-08T08:30:39.652Z,37.80
2019-03-08T08:33:14.438Z,39.73
2019-03-08T08:35:49.016Z,41.33
2019-03-08T08:38:35.988Z,42.04
2019-03-08T08:41:12.533Z,43.08
2019-03-08T08:43:47.619Z,42.81
2019-03-08T08:46:29.750Z,42.66
2019-03-08T08:49:03.460Z,42.75
2019-03-08T08:51:38.247Z,42.89
2019-03-08T08:54:13.250Z,42.99
2019-03-08T08:57:02.222Z,43.22
2019-03-08T08:59:43.869Z,43.29
2019-03-08T09:02:18.895Z,43.30
2019-03-08T09:05:05.834Z,43.21
2019-03-08T09:07:39.900Z,42.50
2019-03-08T09:10:15.165Z,42.45
2019-03-08T09:13:02.055Z,43.29
2019-03-08T09:15:36.065Z,43.38
2019-03-08T09:18:17.395Z,43.72
2019-03-08T09:20:51.262Z,44.10
2019-03-08T09:23:29.927Z,43.85
2019-03-08T09:26:06.952Z,44.01
2019-03-08T09:28:53.397Z,44.22
2019-03-08T09:31:37.340Z,44.42
2019-03-08T09:34:12.935Z,43.69
2019-03-08T09:37:13.991Z,43.74
2019-03-08T09:40:01.008Z,44.00
2019-03-08T09:42:42.721Z,44.05
2019-03-08T09:45:21.775Z,44.15
2019-03-08T09:48:03.334Z,44.23
2019-03-08T09:50:58.879Z,44.45
2019-03-08T09:53:44.194Z,44.19
2019-03-08T09:56:22.368Z,44.12
2019-03-08T09:59:13.987Z,43.87
2019-03-08T10:01:55.422Z,43.70
2019-03-08T10:04:44.586Z,43.25
2019-03-08T10:07:30.719Z,42.54
2019-03-08T10:10:06.597Z,41.55
2019-03-08T10:12:42.773Z,41.23
2019-03-08T10:15:33.084Z,40.67
2019-03-08T10:18:19.971Z,41.17
2019-03-08T10:20:56.976Z,40.81
2019-03-08T10:23:40.049Z,40.69
2019-03-08T10:26:31.611Z,40.59
2019-03-08T10:29:20.787Z,40.83
2019-03-08T10:31:54.263Z,40.43
2019-03-08T10:34:32.019Z,40.46
2019-03-08T10:37:06.606Z,41.09
2019-03-08T10:39:55.160Z,41.23
2019-03-08T10:42:32.954Z,41.91
2019-03-08T10:45:13.740Z,42.22
2019-03-08T10:47:56.118Z,42.77
2019-03-08T10:50:33.249Z,43.43
2019-03-08T10:53:05.220Z,43.52
2019-03-08T10:55:37.484Z,44.24
2019-03-08T10:58:09.624Z,44.63
2019-03-08T11:00:50.385Z,45.09
2019-03-08T11:03:23.522Z,44.31
2019-03-08T11:06:01.567Z,44.41
2019-03-08T11:08:33.534Z,43.88
2019-03-08T11:11:08.272Z,43.64
2019-03-08T11:13:43.157Z,43.79
2019-03-08T11:16:31.510Z,43.92
2019-03-08T11:19:15.529Z,43.73
2019-03-08T11:22:03.533Z,44.24
2019-03-08T11:24:36.698Z,43.82
2019-03-08T11:27:24.718Z,43.58
2019-03-08T11:30:12.987Z,43.24
2019-03-08T11:32:50.672Z,43.38
2019-03-08T11:35:38.977Z,42.97
2019-03-08T11:38:27.576Z,42.09
2019-03-08T11:41:16.357Z,41.99
2019-03-08T11:43:52.997Z,42.36
2019-03-08T11:46:27.078Z,41.80
2019-03-08T11:48:59.778Z,42.16
2019-03-08T11:51:47.827Z,41.92
2019-03-08T11:54:19.718Z,41.80
2019-03-08T11:56:56.242Z,41.98
2019-03-08T11:59:34.315Z,41.78
2019-03-08T12:02:12.246Z,41.86
2019-03-08T12:05:03.806Z,42.08
2019-03-08T12:07:35.766Z,41.60
2019-03-08T12:10:19.795Z,41.26
2019-03-08T12:12:54.589Z,41.43
2019-03-08T12:15:39.287Z,41.34
2019-03-08T12:18:12.810Z,41.80
2019-03-08T12:20:45.976Z,42.00
2019-03-08T12:23:34.365Z,41.78
2019-03-08T12:26:09.510Z,41.43
2019-03-08T12:28:43.366Z,41.50
2019-03-08T12:31:20.516Z,42.13
2019-03-08T12:34:08.846Z,43.00
2019-03-08T12:36:49.554Z,43.50
2019-03-08T12:39:27.639Z,43.85
2019-03-08T12:42:16.053Z,44.56
2019-03-08T12:44:56.828Z,44.75
2019-03-08T12:47:47.951Z,44.48
2019-03-08T12:50:36.454Z,45.41
2019-03-08T12:53:25.727Z,48.58
2019-03-08T12:56:09.799Z,50.47
2019-03-08T12:58:44.424Z,63.06
2019-03-08T13:01:22.140Z,65.31
2019-03-08T13:03:57.085Z,67.78
2019-03-08T13:06:28.978Z,68.37
2019-03-08T13:09:13.132Z,68.13
2019-03-08T13:11:43.585Z,67.87
2019-03-08T13:14:14.044Z,66.64
2019-03-08T13:16:44.632Z,66.50
2019-03-08T13:19:14.896Z,66.13
2019-03-08T13:21:45.216Z,65.39
2019-03-08T13:24:15.552Z,64.96
2019-03-08T13:26:46.707Z,64.07
2019-03-08T13:29:18.657Z,64.14
2019-03-08T13:31:50.163Z,62.27
2019-03-08T13:34:20.490Z,62.20
2019-03-08T13:36:51.988Z,61.98
2019-03-08T13:39:22.446Z,61.06
2019-03-08T13:41:52.909Z,61.58
2019-03-08T13:44:23.514Z,61.60
2019-03-08T13:46:55.284Z,61.75
2019-03-08T13:49:26.016Z,62.09
2019-03-08T13:51:56.568Z,64.02
2019-03-08T13:54:27.858Z,64.50
2019-03-08T13:56:58.111Z,66.73
2019-03-08T13:59:28.552Z,68.88
2019-03-08T14:01:58.996Z,70.02
2019-03-08T14:04:30.473Z,70.50
2019-03-08T14:07:01.981Z,70.41
2019-03-08T14:09:35.630Z,70.54
2019-03-08T14:12:06.617Z,70.33
2019-03-08T14:14:37.001Z,69.64
2019-03-08T14:17:08.941Z,70.10
2019-03-08T14:19:39.259Z,68.10
2019-03-08T14:22:09.711Z,67.10
2019-03-08T14:24:42.352Z,66.54
2019-03-08T14:27:13.100Z,65.60
2019-03-08T14:29:45.022Z,65.69
2019-03-08T14:32:16.486Z,65.01
2019-03-08T14:34:49.512Z,65.08
2019-03-08T14:37:19.844Z,64.88
2019-03-08T14:39:51.537Z,65.10
2019-03-08T14:42:32.487Z,64.47
2019-03-08T14:45:07.794Z,64.12
2019-03-08T14:47:38.209Z,64.44
2019-03-08T14:50:10.292Z,64.45
2019-03-08T14:52:41.549Z,64.63
2019-03-08T14:55:13.509Z,66.34
2019-03-08T14:57:44.024Z,68.68
2019-03-08T15:00:17.079Z,70.00
2019-03-08T15:02:48.620Z,70.39
2019-03-08T15:05:20.397Z,71.21
2019-03-08T15:07:50.867Z,71.08
2019-03-08T15:10:21.692Z,70.47
2019-03-08T15:12:53.288Z,70.20
2019-03-08T15:15:28.612Z,69.61
2019-03-08T15:17:59.113Z,68.96
2019-03-08T15:20:29.372Z,68.12
2019-03-08T15:23:01.061Z,67.81
2019-03-08T15:25:34.543Z,67.45
2019-03-08T15:28:04.923Z,66.23
2019-03-08T15:30:36.391Z,65.05
2019-03-08T15:33:06.953Z,66.09
2019-03-08T15:35:38.364Z,64.58
2019-03-08T15:38:10.085Z,64.11
2019-03-08T15:40:40.962Z,63.82
2019-03-08T15:43:13.606Z,63.44
2019-03-08T15:45:47.305Z,63.26
2019-03-08T15:48:19.342Z,62.47
2019-03-08T15:50:49.614Z,62.37
2019-03-08T15:53:20.691Z,61.74
2019-03-08T15:55:53.133Z,62.83
2019-03-08T15:58:24.244Z,62.36
2019-03-08T16:00:54.842Z,61.13
2019-03-08T16:03:30.094Z,60.83
2019-03-08T16:06:03.089Z,60.83
2019-03-08T16:08:35.768Z,60.47
2019-03-08T16:11:06.195Z,60.98
2019-03-08T16:13:39.145Z,60.86
2019-03-08T16:16:10.039Z,61.93
2019-03-08T16:18:48.260Z,61.72
2019-03-08T16:21:21.795Z,62.30
2019-03-08T16:23:53.944Z,62.75
2019-03-08T16:26:27.054Z,62.79
2019-03-08T16:28:58.481Z,63.18
2019-03-08T16:31:40.011Z,63.32
2019-03-08T16:34:14.537Z,62.94
2019-03-08T16:36:51.182Z,63.15
2019-03-08T16:39:50.423Z,63.10
2019-03-08T16:42:26.435Z,61.87
2019-03-08T16:45:16.580Z,61.42
2019-03-08T16:48:10.716Z,60.81
2019-03-08T16:50:50.665Z,59.40
2019-03-08T16:53:26.173Z,58.93
2019-03-08T16:56:05.568Z,58.35
2019-03-08T16:58:41.766Z,59.21
2019-03-08T17:01:17.067Z,57.86
2019-03-08T17:03:56.286Z,58.10
2019-03-08T17:06:40.542Z,58.16
2019-03-08T17:09:23.259Z,58.73
2019-03-08T17:11:57.915Z,58.26
2019-03-08T17:14:38.171Z,58.39
2019-03-08T17:17:27.242Z,59.51
2019-03-08T17:20:02.250Z,59.08
2019-03-08T17:22:41.882Z,59.29
2019-03-08T17:25:31.874Z,59.70
2019-03-08T17:28:16.972Z,59.50
2019-03-08T17:30:54.969Z,59.62
2019-03-08T17:33:28.446Z,60.39
2019-03-08T17:36:04.180Z,59.75
2019-03-08T17:38:39.494Z,60.33
2019-03-08T17:41:13.046Z,60.27
2019-03-08T17:43:52.494Z,60.75
2019-03-08T17:46:32.277Z,60.99
2019-03-08T17:49:05.741Z,60.78
2019-03-08T17:51:52.399Z,61.41
2019-03-08T17:54:28.147Z,61.29
2019-03-08T17:57:01.299Z,61.09
2019-03-08T17:59:36.965Z,61.63
2019-03-08T18:02:17.975Z,61.65
2019-03-08T18:04:56.521Z,61.40
2019-03-08T18:07:40.872Z,61.34
2019-03-08T18:10:24.858Z,61.79
2019-03-08T18:12:56.977Z,61.64
2019-03-08T18:15:41.027Z,62.22
2019-03-08T18:18:13.104Z,62.77
2019-03-08T18:20:51.636Z,63.21
2019-03-08T18:23:29.657Z,63.61
2019-03-08T18:26:01.570Z,64.06
2019-03-08T18:28:51.114Z,64.26
2019-03-08T18:31:35.189Z,64.36
2019-03-08T18:34:07.196Z,64.87
2019-03-08T18:36:48.307Z,65.20
2019-03-08T18:39:24.280Z,65.43
2019-03-08T18:41:56.406Z,65.90
2019-03-08T18:44:46.183Z,66.25
2019-03-08T18:47:30.571Z,66.42
2019-03-08T18:50:05.878Z,66.44
2019-03-08T18:52:51.596Z,66.32
2019-03-08T18:55:32.513Z,66.62
2019-03-08T18:58:09.799Z,66.88
2019-03-08T19:00:49.145Z,67.10
2019-03-08T19:03:27.045Z,67.43
2019-03-08T19:06:11.281Z,67.99
2019-03-08T19:08:52.173Z,67.58
2019-03-08T19:11:40.888Z,68.22
2019-03-08T19:14:14.227Z,68.22
2019-03-08T19:16:51.433Z,68.33
2019-03-08T19:19:27.417Z,68.94
2019-03-08T19:22:15.766Z,69.73
2019-03-08T19:24:52.495Z,70.32
2019-03-08T19:27:34.870Z,70.88
2019-03-08T19:30:14.677Z,71.43
2019-03-08T19:32:54.580Z,72.21
2019-03-08T19:35:27.724Z,71.67
2019-03-08T19:38:18.286Z,72.80
2019-03-08T19:41:07.486Z,73.24
2019-03-08T19:43:42.383Z,72.53
2019-03-08T19:46:30.957Z,72.87
2019-03-08T19:49:02.872Z,73.02
2019-03-08T19:51:38.841Z,73.58
2019-03-08T19:54:11.915Z,73.33
2019-03-08T19:56:49.884Z,74.02
2019-03-08T19:59:28.307Z,73.84
2019-03-08T20:02:12.042Z,73.48
2019-03-08T20:05:05.937Z,73.98
2019-03-08T20:07:56.977Z,73.92
2019-03-08T20:10:33.131Z,73.90
2019-03-08T20:13:06.748Z,74.03
2019-03-08T20:15:43.812Z,73.97
2019-03-08T20:18:28.665Z,73.72
2019-03-08T20:21:14.415Z,73.93
2019-03-08T20:23:55.972Z,73.72
2019-03-08T20:26:52.546Z,74.00
2019-03-08T20:29:47.966Z,74.37
2019-03-08T20:32:30.596Z,75.07
2019-03-08T20:35:02.815Z,74.65
2019-03-08T20:37:43.767Z,74.60
2019-03-08T20:40:33.331Z,74.44
2019-03-08T20:43:06.621Z,74.59
2019-03-08T20:45:38.723Z,74.42
2019-03-08T20:48:13.389Z,74.93
2019-03-08T20:50:46.761Z,74.71
2019-03-08T20:53:18.183Z,75.63
2019-03-08T20:55:55.402Z,76.36
2019-03-08T20:58:29.485Z,76.20
2019-03-08T21:01:01.204Z,75.95
2019-03-08T21:03:37.737Z,76.06
2019-03-08T21:06:11.707Z,75.52
2019-03-08T21:08:45.245Z,75.70
2019-03-08T21:11:17.310Z,75.79
2019-03-08T21:13:48.192Z,75.31
2019-03-08T21:16:19.700Z,75.15
2019-03-08T21:18:54.114Z,75.50
2019-03-08T21:21:25.555Z,75.49
2019-03-08T21:23:55.893Z,75.63
2019-03-08T21:26:27.298Z,75.20
2019-03-08T21:28:59.091Z,75.78
2019-03-08T21:31:30.610Z,75.42
2019-03-08T21:34:02.347Z,76.12
2019-03-08T21:36:34.661Z,75.91
2019-03-08T21:39:06.263Z,75.98
2019-03-08T21:41:37.887Z,76.28
2019-03-08T21:44:08.399Z,75.91
2019-03-08T21:46:39.141Z,75.53
2019-03-08T21:49:09.771Z,76.21
2019-03-08T21:51:41.557Z,76.11
2019-03-08T21:54:12.996Z,76.61
2019-03-08T21:56:44.752Z,76.80
2019-03-08T21:59:17.127Z,76.72
2019-03-08T22:01:50.136Z,76.76
2019-03-08T22:04:28.038Z,77.44
2019-03-08T22:07:00.103Z,76.91
2019-03-08T22:09:35.513Z,76.76
2019-03-08T22:12:06.979Z,77.16
2019-03-08T22:14:43.536Z,77.49
2019-03-08T22:17:17.453Z,78.18
2019-03-08T22:19:47.794Z,78.45
2019-03-08T22:22:22.079Z,78.58
2019-03-08T22:24:55.870Z,78.76
2019-03-08T22:27:26.612Z,79.21
2019-03-08T22:30:01.863Z,79.21
2019-03-08T22:32:35.661Z,78.71
2019-03-08T22:35:12.432Z,78.46
2019-03-08T22:37:49.056Z,78.27
2019-03-08T22:40:23.547Z,77.85
2019-03-08T22:42:54.913Z,77.83
2019-03-08T22:45:25.325Z,77.92
2019-03-08T22:47:55.858Z,78.05
2019-03-08T22:50:28.538Z,77.73
2019-03-08T22:53:00.116Z,77.44
2019-03-08T22:55:30.667Z,77.20
2019-03-08T22:58:01.036Z,77.12
2019-03-08T23:00:47.311Z,77.25
2019-03-08T23:03:20.532Z,76.99
2019-03-08T23:05:52.152Z,76.92
2019-03-08T23:08:22.515Z,76.91
2019-03-08T23:10:53.443Z,76.78
2019-03-08T23:13:24.461Z,76.98
2019-03-08T23:15:57.513Z,76.53
2019-03-08T23:18:29.238Z,76.66
2019-03-08T23:21:00.696Z,77.14
2019-03-08T23:23:31.228Z,77.04
2019-03-08T23:26:02.690Z,76.67
2019-03-08T23:28:37.453Z,76.63
2019-03-08T23:31:09.374Z,76.79
2019-03-08T23:33:39.780Z,76.74
2019-03-08T23:36:14.212Z,76.53
2019-03-08T23:38:44.549Z,76.58
2019-03-08T23:41:17.513Z,76.51
2019-03-08T23:43:48.081Z,76.59
2019-03-08T23:46:20.447Z,77.00
2019-03-08T23:48:51.885Z,77.02
2019-03-08T23:51:22.415Z,76.81
2019-03-08T23:53:52.948Z,76.74
2019-03-08T23:56:24.396Z,76.63
2019-03-08T23:58:54.649Z,77.14
